sensor_id;sensor_type;location;lat;lon;timestamp;P1;durP1;ratioP1;P2;durP2;ratioP2
39600;SDS011;25297;44.758;11.310;2023-12-14T00:01:21;48.33;;;28.77;;
39600;SDS011;25297;44.758;11.310;2023-12-14T00:03:47;48.03;;;28.05;;
39600;SDS011;25297;44.758;11.310;2023-12-14T00:06:13;59.95;;;31.83;;
39600;SDS011;25297;44.758;11.310;2023-12-14T00:08:39;44.30;;;27.42;;
39600;SDS011;25297;44.758;11.310;2023-12-14T00:11:09;45.85;;;26.90;;
39600;SDS011;25297;44.758;11.310;2023-12-14T00:13:36;47.95;;;28.65;;
39600;SDS011;25297;44.758;11.310;2023-12-14T00:16:02;80.10;;;34.33;;
39600;SDS011;25297;44.758;11.310;2023-12-14T00:18:28;40.90;;;26.92;;
39600;SDS011;25297;44.758;11.310;2023-12-14T00:20:54;41.92;;;26.75;;
39600;SDS011;25297;44.758;11.310;2023-12-14T00:23:20;45.13;;;26.88;;
39600;SDS011;25297;44.758;11.310;2023-12-14T00:25:46;93.88;;;35.03;;
39600;SDS011;25297;44.758;11.310;2023-12-14T00:28:12;48.35;;;28.55;;
39600;SDS011;25297;44.758;11.310;2023-12-14T00:30:37;46.97;;;29.05;;
39600;SDS011;25297;44.758;11.310;2023-12-14T00:33:03;114.43;;;40.65;;
39600;SDS011;25297;44.758;11.310;2023-12-14T00:35:29;66.47;;;33.97;;
39600;SDS011;25297;44.758;11.310;2023-12-14T00:37:54;56.78;;;31.73;;
39600;SDS011;25297;44.758;11.310;2023-12-14T00:40:20;51.60;;;31.10;;
39600;SDS011;25297;44.758;11.310;2023-12-14T00:42:45;42.70;;;26.83;;
39600;SDS011;25297;44.758;11.310;2023-12-14T00:45:11;51.28;;;29.45;;
39600;SDS011;25297;44.758;11.310;2023-12-14T00:47:37;62.08;;;33.47;;
39600;SDS011;25297;44.758;11.310;2023-12-14T00:50:03;92.18;;;36.75;;
39600;SDS011;25297;44.758;11.310;2023-12-14T00:52:29;125.60;;;42.30;;
39600;SDS011;25297;44.758;11.310;2023-12-14T00:54:55;95.30;;;39.22;;
39600;SDS011;25297;44.758;11.310;2023-12-14T00:57:20;58.88;;;32.08;;
39600;SDS011;25297;44.758;11.310;2023-12-14T00:59:46;151.85;;;45.08;;
39600;SDS011;25297;44.758;11.310;2023-12-14T01:02:12;177.27;;;47.28;;
39600;SDS011;25297;44.758;11.310;2023-12-14T01:04:37;84.82;;;37.55;;
39600;SDS011;25297;44.758;11.310;2023-12-14T01:07:03;57.22;;;33.05;;
39600;SDS011;25297;44.758;11.310;2023-12-14T01:09:29;52.03;;;31.15;;
39600;SDS011;25297;44.758;11.310;2023-12-14T01:11:55;60.63;;;33.20;;
39600;SDS011;25297;44.758;11.310;2023-12-14T01:14:21;56.17;;;31.80;;
39600;SDS011;25297;44.758;11.310;2023-12-14T01:16:46;56.63;;;32.28;;
39600;SDS011;25297;44.758;11.310;2023-12-14T01:19:12;57.20;;;32.75;;
39600;SDS011;25297;44.758;11.310;2023-12-14T01:21:38;95.85;;;39.92;;
39600;SDS011;25297;44.758;11.310;2023-12-14T01:24:03;75.47;;;34.58;;
39600;SDS011;25297;44.758;11.310;2023-12-14T01:26:29;142.63;;;43.35;;
39600;SDS011;25297;44.758;11.310;2023-12-14T01:28:55;84.97;;;35.38;;
39600;SDS011;25297;44.758;11.310;2023-12-14T01:31:20;63.00;;;31.17;;
39600;SDS011;25297;44.758;11.310;2023-12-14T01:33:49;53.78;;;29.88;;
39600;SDS011;25297;44.758;11.310;2023-12-14T01:36:21;78.03;;;34.40;;
39600;SDS011;25297;44.758;11.310;2023-12-14T01:38:47;118.68;;;35.90;;
39600;SDS011;25297;44.758;11.310;2023-12-14T01:41:13;114.35;;;37.50;;
39600;SDS011;25297;44.758;11.310;2023-12-14T01:43:39;126.03;;;37.20;;
39600;SDS011;25297;44.758;11.310;2023-12-14T01:46:04;82.63;;;34.60;;
39600;SDS011;25297;44.758;11.310;2023-12-14T01:48:30;102.63;;;35.05;;
39600;SDS011;25297;44.758;11.310;2023-12-14T01:50:55;140.80;;;38.05;;
39600;SDS011;25297;44.758;11.310;2023-12-14T01:53:21;147.02;;;37.80;;
39600;SDS011;25297;44.758;11.310;2023-12-14T01:55:47;131.38;;;36.80;;
39600;SDS011;25297;44.758;11.310;2023-12-14T01:58:13;130.65;;;35.75;;
39600;SDS011;25297;44.758;11.310;2023-12-14T02:03:26;92.75;;;32.25;;
39600;SDS011;25297;44.758;11.310;2023-12-14T02:05:52;90.18;;;33.08;;
39600;SDS011;25297;44.758;11.310;2023-12-14T02:08:17;74.28;;;30.98;;
39600;SDS011;25297;44.758;11.310;2023-12-14T02:10:43;110.63;;;34.17;;
39600;SDS011;25297;44.758;11.310;2023-12-14T02:13:08;108.65;;;31.35;;
39600;SDS011;25297;44.758;11.310;2023-12-14T02:15:34;78.85;;;28.55;;
39600;SDS011;25297;44.758;11.310;2023-12-14T02:18:00;87.28;;;26.75;;
39600;SDS011;25297;44.758;11.310;2023-12-14T02:20:26;84.53;;;26.70;;
39600;SDS011;25297;44.758;11.310;2023-12-14T02:22:52;91.18;;;28.33;;
39600;SDS011;25297;44.758;11.310;2023-12-14T02:25:21;61.20;;;24.38;;
39600;SDS011;25297;44.758;11.310;2023-12-14T02:27:48;48.67;;;23.90;;
39600;SDS011;25297;44.758;11.310;2023-12-14T02:30:15;43.95;;;22.85;;
39600;SDS011;25297;44.758;11.310;2023-12-14T02:32:41;46.90;;;21.55;;
39600;SDS011;25297;44.758;11.310;2023-12-14T02:35:07;65.20;;;26.48;;
39600;SDS011;25297;44.758;11.310;2023-12-14T02:37:33;103.22;;;32.28;;
39600;SDS011;25297;44.758;11.310;2023-12-14T02:40:02;98.00;;;29.75;;
39600;SDS011;25297;44.758;11.310;2023-12-14T02:42:28;121.78;;;34.17;;
39600;SDS011;25297;44.758;11.310;2023-12-14T02:44:54;51.10;;;24.90;;
39600;SDS011;25297;44.758;11.310;2023-12-14T02:47:21;64.13;;;26.77;;
39600;SDS011;25297;44.758;11.310;2023-12-14T02:49:46;58.03;;;25.65;;
39600;SDS011;25297;44.758;11.310;2023-12-14T02:52:12;95.78;;;30.20;;
39600;SDS011;25297;44.758;11.310;2023-12-14T02:54:38;49.72;;;25.42;;
39600;SDS011;25297;44.758;11.310;2023-12-14T02:57:04;119.82;;;32.40;;
39600;SDS011;25297;44.758;11.310;2023-12-14T02:59:30;63.85;;;29.15;;
39600;SDS011;25297;44.758;11.310;2023-12-14T03:01:56;87.43;;;33.15;;
39600;SDS011;25297;44.758;11.310;2023-12-14T03:04:22;89.32;;;31.52;;
39600;SDS011;25297;44.758;11.310;2023-12-14T03:06:47;52.00;;;26.08;;
39600;SDS011;25297;44.758;11.310;2023-12-14T03:09:13;116.10;;;34.95;;
39600;SDS011;25297;44.758;11.310;2023-12-14T03:11:38;57.92;;;28.13;;
39600;SDS011;25297;44.758;11.310;2023-12-14T03:14:04;87.07;;;32.78;;
39600;SDS011;25297;44.758;11.310;2023-12-14T03:16:30;60.97;;;27.73;;
39600;SDS011;25297;44.758;11.310;2023-12-14T03:18:55;63.50;;;27.58;;
39600;SDS011;25297;44.758;11.310;2023-12-14T03:21:21;90.00;;;31.02;;
39600;SDS011;25297;44.758;11.310;2023-12-14T03:23:48;93.43;;;31.40;;
39600;SDS011;25297;44.758;11.310;2023-12-14T03:26:16;93.47;;;32.50;;
39600;SDS011;25297;44.758;11.310;2023-12-14T03:28:41;97.35;;;31.38;;
39600;SDS011;25297;44.758;11.310;2023-12-14T03:31:07;70.38;;;29.83;;
39600;SDS011;25297;44.758;11.310;2023-12-14T03:33:36;89.30;;;29.83;;
39600;SDS011;25297;44.758;11.310;2023-12-14T03:36:02;81.47;;;30.85;;
39600;SDS011;25297;44.758;11.310;2023-12-14T03:38:28;80.05;;;30.85;;
39600;SDS011;25297;44.758;11.310;2023-12-14T03:40:54;82.85;;;30.60;;
39600;SDS011;25297;44.758;11.310;2023-12-14T03:43:19;69.63;;;29.13;;
39600;SDS011;25297;44.758;11.310;2023-12-14T03:45:45;103.38;;;34.75;;
39600;SDS011;25297;44.758;11.310;2023-12-14T03:48:10;73.18;;;30.58;;
39600;SDS011;25297;44.758;11.310;2023-12-14T03:50:37;98.78;;;34.47;;
39600;SDS011;25297;44.758;11.310;2023-12-14T03:53:02;98.00;;;34.28;;
39600;SDS011;25297;44.758;11.310;2023-12-14T03:55:28;70.63;;;32.10;;
39600;SDS011;25297;44.758;11.310;2023-12-14T03:57:53;86.53;;;36.25;;
39600;SDS011;25297;44.758;11.310;2023-12-14T04:00:20;85.82;;;36.28;;
39600;SDS011;25297;44.758;11.310;2023-12-14T04:02:45;85.00;;;37.75;;
39600;SDS011;25297;44.758;11.310;2023-12-14T04:05:11;91.13;;;38.95;;
39600;SDS011;25297;44.758;11.310;2023-12-14T04:07:37;103.22;;;40.58;;
39600;SDS011;25297;44.758;11.310;2023-12-14T04:10:06;106.88;;;40.50;;
39600;SDS011;25297;44.758;11.310;2023-12-14T04:12:36;117.75;;;42.40;;
39600;SDS011;25297;44.758;11.310;2023-12-14T04:15:03;88.30;;;39.33;;
39600;SDS011;25297;44.758;11.310;2023-12-14T04:17:30;71.07;;;36.92;;
39600;SDS011;25297;44.758;11.310;2023-12-14T04:19:56;66.07;;;34.10;;
39600;SDS011;25297;44.758;11.310;2023-12-14T04:22:22;84.15;;;40.60;;
39600;SDS011;25297;44.758;11.310;2023-12-14T04:24:47;98.88;;;43.67;;
39600;SDS011;25297;44.758;11.310;2023-12-14T04:27:14;100.07;;;43.35;;
39600;SDS011;25297;44.758;11.310;2023-12-14T04:29:40;98.15;;;42.08;;
39600;SDS011;25297;44.758;11.310;2023-12-14T04:32:05;107.28;;;44.88;;
39600;SDS011;25297;44.758;11.310;2023-12-14T04:34:31;98.28;;;43.90;;
39600;SDS011;25297;44.758;11.310;2023-12-14T04:36:57;107.10;;;43.28;;
39600;SDS011;25297;44.758;11.310;2023-12-14T04:39:23;102.10;;;42.63;;
39600;SDS011;25297;44.758;11.310;2023-12-14T04:41:50;92.50;;;39.53;;
39600;SDS011;25297;44.758;11.310;2023-12-14T04:44:17;96.63;;;42.05;;
39600;SDS011;25297;44.758;11.310;2023-12-14T04:46:43;97.65;;;43.05;;
39600;SDS011;25297;44.758;11.310;2023-12-14T04:49:08;99.05;;;41.53;;
39600;SDS011;25297;44.758;11.310;2023-12-14T04:51:34;106.55;;;43.42;;
39600;SDS011;25297;44.758;11.310;2023-12-14T04:54:00;101.90;;;42.38;;
39600;SDS011;25297;44.758;11.310;2023-12-14T04:56:25;75.72;;;37.10;;
39600;SDS011;25297;44.758;11.310;2023-12-14T04:58:51;116.63;;;42.20;;
39600;SDS011;25297;44.758;11.310;2023-12-14T05:01:16;77.82;;;36.42;;
39600;SDS011;25297;44.758;11.310;2023-12-14T05:03:42;72.78;;;36.42;;
39600;SDS011;25297;44.758;11.310;2023-12-14T05:06:08;86.03;;;39.17;;
39600;SDS011;25297;44.758;11.310;2023-12-14T05:08:34;134.43;;;44.90;;
39600;SDS011;25297;44.758;11.310;2023-12-14T05:11:00;96.40;;;40.67;;
39600;SDS011;25297;44.758;11.310;2023-12-14T05:13:25;113.28;;;45.00;;
39600;SDS011;25297;44.758;11.310;2023-12-14T05:15:51;106.10;;;42.60;;
39600;SDS011;25297;44.758;11.310;2023-12-14T05:18:17;102.25;;;43.58;;
39600;SDS011;25297;44.758;11.310;2023-12-14T05:20:43;105.45;;;44.30;;
39600;SDS011;25297;44.758;11.310;2023-12-14T05:23:10;117.13;;;44.95;;
39600;SDS011;25297;44.758;11.310;2023-12-14T05:25:36;125.72;;;45.75;;
39600;SDS011;25297;44.758;11.310;2023-12-14T05:28:02;108.82;;;43.80;;
39600;SDS011;25297;44.758;11.310;2023-12-14T05:30:28;91.50;;;40.75;;
39600;SDS011;25297;44.758;11.310;2023-12-14T05:32:54;93.15;;;39.75;;
39600;SDS011;25297;44.758;11.310;2023-12-14T05:35:20;126.60;;;44.65;;
39600;SDS011;25297;44.758;11.310;2023-12-14T05:37:45;92.78;;;40.35;;
39600;SDS011;25297;44.758;11.310;2023-12-14T05:40:11;97.32;;;41.90;;
39600;SDS011;25297;44.758;11.310;2023-12-14T05:42:37;87.15;;;39.92;;
39600;SDS011;25297;44.758;11.310;2023-12-14T05:45:03;99.53;;;41.50;;
39600;SDS011;25297;44.758;11.310;2023-12-14T05:47:30;102.05;;;42.20;;
39600;SDS011;25297;44.758;11.310;2023-12-14T05:49:57;94.75;;;40.70;;
39600;SDS011;25297;44.758;11.310;2023-12-14T05:52:24;126.43;;;43.28;;
39600;SDS011;25297;44.758;11.310;2023-12-14T05:54:49;137.00;;;45.78;;
39600;SDS011;25297;44.758;11.310;2023-12-14T05:57:15;128.07;;;45.40;;
39600;SDS011;25297;44.758;11.310;2023-12-14T05:59:41;100.80;;;40.92;;
39600;SDS011;25297;44.758;11.310;2023-12-14T06:02:06;81.50;;;37.83;;
39600;SDS011;25297;44.758;11.310;2023-12-14T06:04:32;79.05;;;37.10;;
39600;SDS011;25297;44.758;11.310;2023-12-14T06:06:58;78.35;;;37.30;;
39600;SDS011;25297;44.758;11.310;2023-12-14T06:09:23;74.85;;;36.47;;
39600;SDS011;25297;44.758;11.310;2023-12-14T06:11:59;103.57;;;41.60;;
39600;SDS011;25297;44.758;11.310;2023-12-14T06:14:28;99.45;;;39.83;;
39600;SDS011;25297;44.758;11.310;2023-12-14T06:16:54;82.50;;;38.80;;
39600;SDS011;25297;44.758;11.310;2023-12-14T06:19:20;92.50;;;39.78;;
39600;SDS011;25297;44.758;11.310;2023-12-14T06:21:46;87.32;;;41.10;;
39600;SDS011;25297;44.758;11.310;2023-12-14T06:24:12;91.25;;;39.38;;
39600;SDS011;25297;44.758;11.310;2023-12-14T06:26:41;76.40;;;36.47;;
39600;SDS011;25297;44.758;11.310;2023-12-14T06:29:08;68.10;;;35.15;;
39600;SDS011;25297;44.758;11.310;2023-12-14T06:31:34;77.07;;;36.65;;
39600;SDS011;25297;44.758;11.310;2023-12-14T06:34:00;70.20;;;34.35;;
39600;SDS011;25297;44.758;11.310;2023-12-14T06:36:28;72.43;;;35.42;;
39600;SDS011;25297;44.758;11.310;2023-12-14T06:38:58;105.18;;;40.85;;
39600;SDS011;25297;44.758;11.310;2023-12-14T06:41:24;108.00;;;42.00;;
39600;SDS011;25297;44.758;11.310;2023-12-14T06:43:52;108.07;;;40.92;;
39600;SDS011;25297;44.758;11.310;2023-12-14T06:46:19;95.65;;;38.90;;
39600;SDS011;25297;44.758;11.310;2023-12-14T06:48:44;78.70;;;35.92;;
39600;SDS011;25297;44.758;11.310;2023-12-14T06:51:10;94.72;;;38.28;;
39600;SDS011;25297;44.758;11.310;2023-12-14T06:53:38;94.38;;;38.35;;
39600;SDS011;25297;44.758;11.310;2023-12-14T06:56:05;79.72;;;36.05;;
39600;SDS011;25297;44.758;11.310;2023-12-14T06:58:34;69.80;;;34.78;;
39600;SDS011;25297;44.758;11.310;2023-12-14T07:01:00;66.10;;;33.42;;
39600;SDS011;25297;44.758;11.310;2023-12-14T07:09:51;63.15;;;32.15;;
39600;SDS011;25297;44.758;11.310;2023-12-14T07:12:17;60.30;;;30.80;;
39600;SDS011;25297;44.758;11.310;2023-12-14T07:14:43;63.53;;;33.40;;
39600;SDS011;25297;44.758;11.310;2023-12-14T07:17:08;70.57;;;35.03;;
39600;SDS011;25297;44.758;11.310;2023-12-14T07:19:34;61.03;;;32.72;;
39600;SDS011;25297;44.758;11.310;2023-12-14T07:22:00;54.83;;;31.10;;
39600;SDS011;25297;44.758;11.310;2023-12-14T07:24:26;78.72;;;37.92;;
39600;SDS011;25297;44.758;11.310;2023-12-14T07:26:52;60.05;;;34.05;;
39600;SDS011;25297;44.758;11.310;2023-12-14T07:29:17;56.83;;;33.08;;
39600;SDS011;25297;44.758;11.310;2023-12-14T07:31:43;76.15;;;39.20;;
39600;SDS011;25297;44.758;11.310;2023-12-14T07:34:08;52.20;;;31.48;;
39600;SDS011;25297;44.758;11.310;2023-12-14T07:36:34;61.35;;;33.90;;
39600;SDS011;25297;44.758;11.310;2023-12-14T07:39:00;58.03;;;32.28;;
39600;SDS011;25297;44.758;11.310;2023-12-14T07:41:26;65.07;;;36.10;;
39600;SDS011;25297;44.758;11.310;2023-12-14T07:43:55;73.00;;;38.20;;
39600;SDS011;25297;44.758;11.310;2023-12-14T07:46:21;68.97;;;38.92;;
39600;SDS011;25297;44.758;11.310;2023-12-14T07:48:47;67.18;;;35.92;;
39600;SDS011;25297;44.758;11.310;2023-12-14T07:51:12;62.17;;;33.85;;
39600;SDS011;25297;44.758;11.310;2023-12-14T07:53:38;56.17;;;32.97;;
39600;SDS011;25297;44.758;11.310;2023-12-14T07:56:04;54.92;;;31.65;;
39600;SDS011;25297;44.758;11.310;2023-12-14T07:58:30;51.88;;;31.15;;
39600;SDS011;25297;44.758;11.310;2023-12-14T08:00:56;56.90;;;33.42;;
39600;SDS011;25297;44.758;11.310;2023-12-14T08:03:21;62.70;;;35.67;;
39600;SDS011;25297;44.758;11.310;2023-12-14T08:05:47;68.55;;;36.92;;
39600;SDS011;25297;44.758;11.310;2023-12-14T08:08:12;66.35;;;36.85;;
39600;SDS011;25297;44.758;11.310;2023-12-14T08:10:38;71.82;;;38.80;;
39600;SDS011;25297;44.758;11.310;2023-12-14T08:13:04;75.22;;;38.00;;
39600;SDS011;25297;44.758;11.310;2023-12-14T08:15:29;67.57;;;35.95;;
39600;SDS011;25297;44.758;11.310;2023-12-14T08:17:55;58.63;;;34.65;;
39600;SDS011;25297;44.758;11.310;2023-12-14T08:20:20;57.83;;;32.20;;
39600;SDS011;25297;44.758;11.310;2023-12-14T08:22:47;53.20;;;31.70;;
39600;SDS011;25297;44.758;11.310;2023-12-14T08:25:13;51.45;;;31.50;;
39600;SDS011;25297;44.758;11.310;2023-12-14T08:27:42;52.72;;;30.92;;
39600;SDS011;25297;44.758;11.310;2023-12-14T08:30:11;54.85;;;31.67;;
39600;SDS011;25297;44.758;11.310;2023-12-14T08:32:37;53.72;;;32.97;;
39600;SDS011;25297;44.758;11.310;2023-12-14T08:35:03;56.55;;;35.78;;
39600;SDS011;25297;44.758;11.310;2023-12-14T08:37:29;56.33;;;34.03;;
39600;SDS011;25297;44.758;11.310;2023-12-14T08:39:55;55.00;;;33.85;;
39600;SDS011;25297;44.758;11.310;2023-12-14T08:42:21;60.40;;;35.85;;
39600;SDS011;25297;44.758;11.310;2023-12-14T08:44:46;51.22;;;30.83;;
39600;SDS011;25297;44.758;11.310;2023-12-14T08:47:13;56.40;;;34.05;;
39600;SDS011;25297;44.758;11.310;2023-12-14T08:49:38;54.20;;;34.55;;
39600;SDS011;25297;44.758;11.310;2023-12-14T08:52:04;60.38;;;36.58;;
39600;SDS011;25297;44.758;11.310;2023-12-14T08:54:30;56.22;;;34.90;;
39600;SDS011;25297;44.758;11.310;2023-12-14T08:56:55;52.92;;;33.65;;
39600;SDS011;25297;44.758;11.310;2023-12-14T08:59:21;59.63;;;35.22;;
39600;SDS011;25297;44.758;11.310;2023-12-14T09:01:47;50.58;;;32.58;;
39600;SDS011;25297;44.758;11.310;2023-12-14T09:04:12;51.25;;;32.10;;
39600;SDS011;25297;44.758;11.310;2023-12-14T09:06:38;49.15;;;32.38;;
39600;SDS011;25297;44.758;11.310;2023-12-14T09:09:07;49.20;;;29.52;;
39600;SDS011;25297;44.758;11.310;2023-12-14T09:11:32;54.05;;;33.60;;
39600;SDS011;25297;44.758;11.310;2023-12-14T09:14:00;55.15;;;34.95;;
39600;SDS011;25297;44.758;11.310;2023-12-14T09:16:25;52.05;;;32.33;;
39600;SDS011;25297;44.758;11.310;2023-12-14T09:18:51;62.92;;;37.22;;
39600;SDS011;25297;44.758;11.310;2023-12-14T09:21:17;53.47;;;33.35;;
39600;SDS011;25297;44.758;11.310;2023-12-14T09:23:43;57.25;;;35.67;;
39600;SDS011;25297;44.758;11.310;2023-12-14T09:26:08;57.08;;;35.60;;
39600;SDS011;25297;44.758;11.310;2023-12-14T09:28:35;54.05;;;34.85;;
39600;SDS011;25297;44.758;11.310;2023-12-14T09:31:01;63.22;;;39.63;;
39600;SDS011;25297;44.758;11.310;2023-12-14T09:33:27;56.03;;;35.55;;
39600;SDS011;25297;44.758;11.310;2023-12-14T09:35:53;57.67;;;37.92;;
39600;SDS011;25297;44.758;11.310;2023-12-14T09:38:19;61.40;;;37.70;;
39600;SDS011;25297;44.758;11.310;2023-12-14T09:40:44;59.05;;;36.40;;
39600;SDS011;25297;44.758;11.310;2023-12-14T09:43:10;66.07;;;39.58;;
39600;SDS011;25297;44.758;11.310;2023-12-14T09:45:37;64.25;;;39.42;;
39600;SDS011;25297;44.758;11.310;2023-12-14T09:48:07;66.10;;;39.15;;
39600;SDS011;25297;44.758;11.310;2023-12-14T09:50:35;67.47;;;40.53;;
39600;SDS011;25297;44.758;11.310;2023-12-14T09:53:03;72.03;;;42.85;;
39600;SDS011;25297;44.758;11.310;2023-12-14T09:55:29;70.57;;;42.60;;
39600;SDS011;25297;44.758;11.310;2023-12-14T09:57:56;77.50;;;46.33;;
39600;SDS011;25297;44.758;11.310;2023-12-14T10:05:45;82.22;;;49.45;;
39600;SDS011;25297;44.758;11.310;2023-12-14T10:08:11;81.30;;;50.65;;
39600;SDS011;25297;44.758;11.310;2023-12-14T10:10:37;84.20;;;51.22;;
39600;SDS011;25297;44.758;11.310;2023-12-14T10:13:03;89.00;;;53.42;;
39600;SDS011;25297;44.758;11.310;2023-12-14T10:15:29;87.35;;;53.28;;
39600;SDS011;25297;44.758;11.310;2023-12-14T10:17:55;91.45;;;51.22;;
39600;SDS011;25297;44.758;11.310;2023-12-14T10:20:22;82.63;;;49.20;;
39600;SDS011;25297;44.758;11.310;2023-12-14T10:22:51;81.93;;;50.17;;
39600;SDS011;25297;44.758;11.310;2023-12-14T10:25:18;87.10;;;51.65;;
39600;SDS011;25297;44.758;11.310;2023-12-14T10:27:47;80.55;;;49.67;;
39600;SDS011;25297;44.758;11.310;2023-12-14T10:30:16;85.50;;;50.60;;
39600;SDS011;25297;44.758;11.310;2023-12-14T10:32:41;85.35;;;49.92;;
39600;SDS011;25297;44.758;11.310;2023-12-14T10:35:07;87.90;;;51.15;;
39600;SDS011;25297;44.758;11.310;2023-12-14T10:37:34;74.50;;;45.53;;
39600;SDS011;25297;44.758;11.310;2023-12-14T10:40:05;84.23;;;48.73;;
39600;SDS011;25297;44.758;11.310;2023-12-14T10:42:32;84.47;;;47.60;;
39600;SDS011;25297;44.758;11.310;2023-12-14T10:45:00;82.18;;;49.95;;
39600;SDS011;25297;44.758;11.310;2023-12-14T10:47:27;81.72;;;49.35;;
39600;SDS011;25297;44.758;11.310;2023-12-14T10:49:53;81.50;;;50.58;;
39600;SDS011;25297;44.758;11.310;2023-12-14T10:52:21;83.03;;;49.30;;
39600;SDS011;25297;44.758;11.310;2023-12-14T10:54:49;83.40;;;48.15;;
39600;SDS011;25297;44.758;11.310;2023-12-14T10:57:21;86.03;;;50.33;;
39600;SDS011;25297;44.758;11.310;2023-12-14T10:59:48;81.25;;;50.05;;
39600;SDS011;25297;44.758;11.310;2023-12-14T11:02:14;82.35;;;49.72;;
39600;SDS011;25297;44.758;11.310;2023-12-14T11:10:12;75.55;;;43.53;;
39600;SDS011;25297;44.758;11.310;2023-12-14T11:12:42;77.20;;;44.28;;
39600;SDS011;25297;44.758;11.310;2023-12-14T11:15:25;73.82;;;43.58;;
39600;SDS011;25297;44.758;11.310;2023-12-14T11:23:17;66.30;;;39.75;;
39600;SDS011;25297;44.758;11.310;2023-12-14T11:25:51;65.88;;;38.55;;
39600;SDS011;25297;44.758;11.310;2023-12-14T11:28:18;64.72;;;40.00;;
39600;SDS011;25297;44.758;11.310;2023-12-14T11:30:44;66.50;;;40.08;;
39600;SDS011;25297;44.758;11.310;2023-12-14T11:33:14;66.28;;;39.47;;
39600;SDS011;25297;44.758;11.310;2023-12-14T11:35:41;61.05;;;38.97;;
39600;SDS011;25297;44.758;11.310;2023-12-14T11:38:07;60.58;;;37.05;;
39600;SDS011;25297;44.758;11.310;2023-12-14T11:40:38;59.00;;;37.13;;
39600;SDS011;25297;44.758;11.310;2023-12-14T11:43:04;58.67;;;34.30;;
39600;SDS011;25297;44.758;11.310;2023-12-14T11:45:35;65.18;;;37.00;;
39600;SDS011;25297;44.758;11.310;2023-12-14T11:48:02;55.78;;;34.38;;
39600;SDS011;25297;44.758;11.310;2023-12-14T11:50:38;54.65;;;34.08;;
39600;SDS011;25297;44.758;11.310;2023-12-14T11:53:06;56.88;;;33.17;;
39600;SDS011;25297;44.758;11.310;2023-12-14T11:55:36;48.53;;;30.10;;
39600;SDS011;25297;44.758;11.310;2023-12-14T11:58:04;49.45;;;29.15;;
39600;SDS011;25297;44.758;11.310;2023-12-14T12:00:30;49.67;;;31.38;;
39600;SDS011;25297;44.758;11.310;2023-12-14T12:03:10;52.95;;;31.58;;
39600;SDS011;25297;44.758;11.310;2023-12-14T12:05:38;49.47;;;31.10;;
39600;SDS011;25297;44.758;11.310;2023-12-14T12:08:08;52.63;;;33.15;;
39600;SDS011;25297;44.758;11.310;2023-12-14T12:10:34;51.25;;;30.33;;
39600;SDS011;25297;44.758;11.310;2023-12-14T12:13:02;50.10;;;31.20;;
39600;SDS011;25297;44.758;11.310;2023-12-14T12:15:30;50.53;;;32.67;;
39600;SDS011;25297;44.758;11.310;2023-12-14T12:18:02;55.40;;;34.53;;
39600;SDS011;25297;44.758;11.310;2023-12-14T12:22:58;55.15;;;33.90;;
39600;SDS011;25297;44.758;11.310;2023-12-14T12:25:24;57.72;;;36.42;;
39600;SDS011;25297;44.758;11.310;2023-12-14T12:27:51;67.72;;;37.35;;
39600;SDS011;25297;44.758;11.310;2023-12-14T12:30:17;58.03;;;36.97;;
39600;SDS011;25297;44.758;11.310;2023-12-14T12:32:43;60.90;;;37.40;;
39600;SDS011;25297;44.758;11.310;2023-12-14T12:35:09;61.28;;;38.72;;
39600;SDS011;25297;44.758;11.310;2023-12-14T12:37:34;61.83;;;38.88;;
39600;SDS011;25297;44.758;11.310;2023-12-14T12:40:00;68.22;;;42.65;;
39600;SDS011;25297;44.758;11.310;2023-12-14T12:42:26;65.40;;;41.30;;
39600;SDS011;25297;44.758;11.310;2023-12-14T12:44:52;61.53;;;38.97;;
39600;SDS011;25297;44.758;11.310;2023-12-14T12:47:17;56.33;;;36.42;;
39600;SDS011;25297;44.758;11.310;2023-12-14T12:49:43;59.25;;;37.13;;
39600;SDS011;25297;44.758;11.310;2023-12-14T12:52:09;57.42;;;37.45;;
39600;SDS011;25297;44.758;11.310;2023-12-14T12:54:35;60.67;;;38.88;;
39600;SDS011;25297;44.758;11.310;2023-12-14T12:57:00;62.13;;;38.30;;
39600;SDS011;25297;44.758;11.310;2023-12-14T12:59:26;64.72;;;42.88;;
39600;SDS011;25297;44.758;11.310;2023-12-14T13:01:52;70.72;;;43.17;;
39600;SDS011;25297;44.758;11.310;2023-12-14T13:04:19;64.53;;;43.20;;
39600;SDS011;25297;44.758;11.310;2023-12-14T13:06:49;60.25;;;38.92;;
39600;SDS011;25297;44.758;11.310;2023-12-14T13:09:16;60.00;;;38.70;;
39600;SDS011;25297;44.758;11.310;2023-12-14T13:11:42;56.83;;;38.88;;
39600;SDS011;25297;44.758;11.310;2023-12-14T13:14:08;55.45;;;38.60;;
39600;SDS011;25297;44.758;11.310;2023-12-14T13:16:35;56.08;;;37.83;;
39600;SDS011;25297;44.758;11.310;2023-12-14T13:19:01;62.95;;;38.95;;
39600;SDS011;25297;44.758;11.310;2023-12-14T13:21:28;61.00;;;40.03;;
39600;SDS011;25297;44.758;11.310;2023-12-14T13:23:54;62.38;;;39.75;;
39600;SDS011;25297;44.758;11.310;2023-12-14T13:26:22;63.55;;;40.75;;
39600;SDS011;25297;44.758;11.310;2023-12-14T13:28:48;63.67;;;42.58;;
39600;SDS011;25297;44.758;11.310;2023-12-14T13:31:14;59.35;;;39.63;;
39600;SDS011;25297;44.758;11.310;2023-12-14T13:33:39;61.35;;;40.30;;
39600;SDS011;25297;44.758;11.310;2023-12-14T13:36:05;65.75;;;42.65;;
39600;SDS011;25297;44.758;11.310;2023-12-14T13:38:33;65.38;;;41.15;;
39600;SDS011;25297;44.758;11.310;2023-12-14T13:41:01;64.70;;;41.67;;
39600;SDS011;25297;44.758;11.310;2023-12-14T13:43:29;62.80;;;41.63;;
39600;SDS011;25297;44.758;11.310;2023-12-14T13:45:55;61.95;;;41.55;;
39600;SDS011;25297;44.758;11.310;2023-12-14T13:48:27;65.85;;;41.03;;
39600;SDS011;25297;44.758;11.310;2023-12-14T13:50:53;73.00;;;46.10;;
39600;SDS011;25297;44.758;11.310;2023-12-14T13:53:20;69.60;;;44.08;;
39600;SDS011;25297;44.758;11.310;2023-12-14T13:55:46;72.28;;;45.78;;
39600;SDS011;25297;44.758;11.310;2023-12-14T13:58:12;75.22;;;46.88;;
39600;SDS011;25297;44.758;11.310;2023-12-14T14:00:38;76.68;;;48.15;;
39600;SDS011;25297;44.758;11.310;2023-12-14T14:03:04;76.68;;;48.17;;
39600;SDS011;25297;44.758;11.310;2023-12-14T14:05:33;72.05;;;47.58;;
39600;SDS011;25297;44.758;11.310;2023-12-14T14:07:58;79.45;;;49.28;;
39600;SDS011;25297;44.758;11.310;2023-12-14T14:10:25;76.57;;;47.25;;
39600;SDS011;25297;44.758;11.310;2023-12-14T14:12:50;78.07;;;48.75;;
39600;SDS011;25297;44.758;11.310;2023-12-14T14:15:17;82.82;;;50.35;;
39600;SDS011;25297;44.758;11.310;2023-12-14T14:17:42;77.07;;;48.28;;
39600;SDS011;25297;44.758;11.310;2023-12-14T14:20:08;77.47;;;48.33;;
39600;SDS011;25297;44.758;11.310;2023-12-14T14:22:35;76.93;;;48.72;;
39600;SDS011;25297;44.758;11.310;2023-12-14T14:25:04;78.57;;;48.35;;
39600;SDS011;25297;44.758;11.310;2023-12-14T14:27:34;86.13;;;52.65;;
39600;SDS011;25297;44.758;11.310;2023-12-14T14:29:59;84.38;;;51.75;;